Time;durP1;ratioP1;P1;durP2;ratioP2;P2;SDS_P1;SDS_P2;PMS_P1;PMS_P2;Temp;Humidity;BMP_temperature;BMP_pressure;BME280_temperature;BME280_humidity;BME280_pressure;Samples;Min_cycle;Max_cycle;Signal;HPM_P1;HPM_P2
2023/06/19 00:00:06;;;;;;;3.95;2.20;;;;;;;21.07;65.51;100923.03;6097661;19;20013;-72
2023/06/19 00:02:13;;;;;;;5.30;1.92;;;;;;;21.05;65.92;100915.13;6101149;19;20038;-73
2023/06/19 00:04:18;;;;;;;5.43;2.17;;;;;;;21.02;66.14;100916.22;6102123;19;20021;-72
2023/06/19 00:06:23;;;;;;;3.63;1.60;;;;;;;20.94;67.34;100925.88;6099625;19;20010;-70
2023/06/19 00:08:30;;;;;;;5.05;1.90;;;;;;;20.89;67.12;100928.91;6098894;19;20086;-72
2023/06/19 00:10:35;;;;;;;4.45;1.90;;;;;;;20.85;67.42;100922.13;6101222;19;20094;-70
2023/06/19 00:12:40;;;;;;;2.88;1.73;;;;;;;20.76;68.33;100936.25;6098338;19;20471;-72
2023/06/19 00:14:51;;;;;;;5.70;2.08;;;;;;;20.63;69.02;100933.72;6103289;19;20034;-73
2023/06/19 00:17:00;;;;;;;7.40;2.60;;;;;;;20.56;69.41;100937.84;6096108;19;19998;-71
2023/06/19 00:19:05;;;;;;;5.40;2.03;;;;;;;20.46;70.13;100928.84;6100807;19;20066;-71
2023/06/19 00:21:14;;;;;;;4.57;2.10;;;;;;;20.39;70.54;100933.84;6093471;19;20074;-72
2023/06/19 00:23:20;;;;;;;5.68;2.33;;;;;;;20.31;70.95;100933.63;6097890;19;20476;-73
2023/06/19 00:25:28;;;;;;;9.18;3.25;;;;;;;20.25;71.19;100931.41;6101657;19;20121;-72
2023/06/19 00:27:35;;;;;;;5.70;2.88;;;;;;;20.22;71.46;100939.69;6100947;19;20011;-72
2023/06/19 00:29:43;;;;;;;6.03;2.88;;;;;;;20.21;72.29;100941.50;6098409;19;20459;-71
2023/06/19 00:31:55;;;;;;;5.75;2.70;;;;;;;20.20;72.08;100944.31;6100193;19;20113;-72
2023/06/19 00:34:04;;;;;;;5.78;2.80;;;;;;;20.21;71.94;100946.84;6099534;19;20019;-73
2023/06/19 00:36:12;;;;;;;5.72;2.60;;;;;;;20.20;72.52;100944.31;6096688;19;20014;-71
2023/06/19 00:38:17;;;;;;;7.00;3.10;;;;;;;20.15;72.38;100942.00;6099243;19;20003;-72
2023/06/19 00:40:29;;;;;;;7.28;3.30;;;;;;;20.17;72.44;100932.91;6096645;19;20095;-72
2023/06/19 00:42:34;;;;;;;9.37;3.80;;;;;;;20.19;72.08;100938.09;6098183;19;20041;-72
2023/06/19 00:44:40;;;;;;;7.63;3.80;;;;;;;20.16;72.50;100941.00;6097667;19;20304;-71
2023/06/19 00:46:47;;;;;;;7.40;3.15;;;;;;;20.12;72.75;100943.09;6094830;19;20218;-73
2023/06/19 00:48:56;;;;;;;7.47;3.38;;;;;;;20.12;73.28;100939.56;6099543;19;20011;-72
2023/06/19 00:51:05;;;;;;;;;;;;;;;20.09;73.46;100947.78;6093388;19;20011;-71
2023/06/19 00:53:11;;;;;;;9.50;3.80;;;;;;;20.08;73.64;100938.94;6090623;19;19907;-72
2023/06/19 00:55:18;;;;;;;10.10;3.92;;;;;;;20.03;74.14;100938.47;6092306;19;20015;-72
2023/06/19 00:57:26;;;;;;;8.55;3.70;;;;;;;19.98;74.75;100937.13;6093468;19;20020;-71
2023/06/19 00:59:33;;;;;;;8.95;4.07;;;;;;;20.07;74.58;100937.28;6097202;19;20432;-72
2023/06/19 01:01:38;;;;;;;8.85;4.18;;;;;;;20.02;74.97;100934.09;6097621;19;20018;-76
2023/06/19 01:03:44;;;;;;;9.52;4.10;;;;;;;19.93;75.86;100930.34;6097168;19;20010;-75
2023/06/19 01:05:55;;;;;;;10.10;5.35;;;;;;;19.88;76.43;100940.53;6101712;19;20011;-78
2023/06/19 01:08:12;;;;;;;8.68;4.50;;;;;;;19.82;76.69;100940.16;6103835;19;20010;-77
2023/06/19 01:10:21;;;;;;;9.95;5.20;;;;;;;19.77;77.41;100942.31;6096212;19;20011;-75
2023/06/19 01:12:33;;;;;;;14.07;6.25;;;;;;;19.68;78.29;100936.75;6094835;19;20487;-76
2023/06/19 01:14:43;;;;;;;10.85;5.38;;;;;;;19.62;79.94;100939.00;6098649;19;20010;-77
2023/06/19 01:16:49;;;;;;;12.68;6.85;;;;;;;19.48;80.68;100942.72;6095856;19;20003;-75
2023/06/19 01:18:56;;;;;;;15.35;6.53;;;;;;;19.47;81.37;100938.34;6092124;19;20350;-75
2023/06/19 01:21:15;;;;;;;14.38;6.55;;;;;;;19.56;81.13;100928.81;6096737;19;20439;-76
2023/06/19 01:23:23;;;;;;;18.55;8.48;;;;;;;19.57;80.56;100933.19;6093288;19;20047;-76
2023/06/19 01:25:31;;;;;;;16.52;8.52;;;;;;;19.54;80.83;100936.94;6095846;19;20014;-75
2023/06/19 01:27:37;;;;;;;19.45;9.35;;;;;;;19.51;80.99;100943.34;6089072;19;20124;-77
2023/06/19 01:29:42;;;;;;;20.90;10.75;;;;;;;19.47;82.29;100941.03;6093506;19;20369;-76
2023/06/19 01:31:53;;;;;;;21.90;10.30;;;;;;;19.39;82.44;100940.75;6092281;19;20011;-76
2023/06/19 01:34:04;;;;;;;22.27;10.93;;;;;;;19.43;81.99;100939.53;6091235;19;20013;-77
2023/06/19 01:36:10;;;;;;;26.23;10.90;;;;;;;19.47;82.16;100936.53;6096279;19;20002;-78
2023/06/19 01:38:16;;;;;;;29.90;12.13;;;;;;;19.48;82.09;100938.25;6095101;19;20420;-77
2023/06/19 01:40:27;;;;;;;22.92;12.07;;;;;;;19.45;82.14;100935.81;6087917;19;20286;-77
2023/06/19 01:42:33;;;;;;;25.02;11.65;;;;;;;19.47;82.20;100938.34;6092395;19;20021;-77
2023/06/19 01:44:38;;;;;;;25.70;12.18;;;;;;;19.44;81.99;100938.59;6091050;19;20445;-76
2023/06/19 01:46:43;;;;;;;25.67;14.70;;;;;;;19.47;82.39;100935.69;6090751;19;20003;-76
2023/06/19 01:48:49;;;;;;;26.15;12.40;;;;;;;19.53;81.97;100930.72;6093698;19;20407;-76
2023/06/19 01:50:54;;;;;;;30.63;13.20;;;;;;;19.57;82.05;100928.69;6095182;19;20027;-77
2023/06/19 01:52:59;;;;;;;32.20;13.93;;;;;;;19.58;81.95;100916.22;6089156;19;20343;-75
2023/06/19 01:55:04;;;;;;;29.20;13.60;;;;;;;19.67;81.11;100927.06;6092966;19;20022;-76
2023/06/19 01:57:12;;;;;;;24.17;12.30;;;;;;;19.69;81.43;100935.75;6096990;19;20003;-76
2023/06/19 01:59:19;;;;;;;28.15;12.18;;;;;;;19.73;81.32;100928.38;6088797;19;20007;-75
2023/06/19 02:01:25;;;;;;;22.30;11.40;;;;;;;19.74;81.11;100938.91;6091106;19;20002;-75
2023/06/19 02:03:31;;;;;;;24.52;11.82;;;;;;;19.76;81.20;100937.97;6090696;19;20016;-76
2023/06/19 02:05:39;;;;;;;31.35;11.85;;;;;;;19.76;81.34;100944.16;6094425;19;20031;-75
2023/06/19 02:07:44;;;;;;;21.80;10.95;;;;;;;19.77;82.19;100934.31;6092708;19;20021;-77
2023/06/19 02:09:51;;;;;;;20.33;12.20;;;;;;;19.75;82.38;100934.47;6090647;19;20007;-76
2023/06/19 02:11:56;;;;;;;21.00;10.80;;;;;;;19.70;82.94;100940.13;6094308;19;20448;-75
2023/06/19 02:14:06;;;;;;;21.00;10.80;;;;;;;19.68;83.39;100939.41;6092317;19;20002;-75
2023/06/19 02:16:11;;;;;;;18.52;10.02;;;;;;;19.70;83.46;100937.47;6089595;19;20006;-77
2023/06/19 02:18:17;;;;;;;20.65;11.00;;;;;;;19.70;83.66;100944.63;6092105;19;20019;-75
2023/06/19 02:20:24;;;;;;;22.13;11.57;;;;;;;19.65;84.41;100944.09;6093475;19;20017;-75
2023/06/19 02:22:32;;;;;;;20.15;12.23;;;;;;;19.71;84.28;100938.31;6099974;19;20018;-76
2023/06/19 02:24:39;;;;;;;29.98;14.95;;;;;;;19.51;85.41;100945.16;6094123;19;20010;-75
2023/06/19 02:26:47;;;;;;;25.10;13.98;;;;;;;19.60;85.33;100940.94;6094426;19;20034;-76
2023/06/19 02:28:53;;;;;;;26.90;15.00;;;;;;;19.56;85.75;100950.97;6094800;19;20010;-76
2023/06/19 02:31:01;;;;;;;28.38;15.88;;;;;;;19.50;86.12;100951.44;6093442;19;20470;-77
2023/06/19 02:33:07;;;;;;;25.15;13.98;;;;;;;19.56;86.45;100950.13;6093360;19;20631;-74
2023/06/19 02:35:15;;;;;;;27.77;15.20;;;;;;;19.52;86.15;100958.34;6094243;19;20451;-76
2023/06/19 02:37:20;;;;;;;31.60;16.42;;;;;;;19.51;86.62;100959.34;6089866;19;20574;-75
2023/06/19 02:39:26;;;;;;;27.58;14.60;;;;;;;19.48;86.85;100959.56;6093596;19;20633;-75
2023/06/19 02:41:31;;;;;;;28.35;15.13;;;;;;;19.53;86.47;100964.53;6091293;19;20003;-77
2023/06/19 02:43:36;;;;;;;28.38;15.98;;;;;;;19.53;85.92;100970.72;6096749;19;20047;-77
2023/06/19 02:45:41;;;;;;;25.42;14.63;;;;;;;19.52;86.55;100973.50;6096614;19;20708;-75
2023/06/19 02:47:51;;;;;;;25.90;14.73;;;;;;;19.50;86.51;100978.09;6096703;19;20002;-76
2023/06/19 02:49:56;;;;;;;26.25;14.43;;;;;;;19.47;86.62;100983.66;6096511;19;20006;-77
2023/06/19 02:52:04;;;;;;;28.33;15.35;;;;;;;19.46;87.58;100987.31;6095434;19;20014;-77
2023/06/19 02:54:09;;;;;;;29.38;15.40;;;;;;;19.37;89.50;100994.16;6093220;19;20036;-75
2023/06/19 02:56:15;;;;;;;27.02;15.48;;;;;;;19.13;91.28;100996.00;6092319;19;20015;-75
2023/06/19 02:58:20;;;;;;;29.70;15.70;;;;;;;19.07;92.30;100997.31;6092563;19;20007;-75
2023/06/19 03:00:27;;;;;;;29.95;15.68;;;;;;;19.09;92.52;100992.72;6092812;19;20147;-74
2023/06/19 03:02:35;;;;;;;31.25;16.85;;;;;;;18.96;93.53;101007.91;6086772;19;20490;-74
2023/06/19 03:04:44;;;;;;;32.40;17.60;;;;;;;18.93;94.17;101010.78;6089839;19;20022;-74
2023/06/19 03:06:49;;;;;;;38.55;19.42;;;;;;;18.88;94.33;101021.78;6090585;19;20134;-75
2023/06/19 03:08:56;;;;;;;37.53;20.02;;;;;;;18.84;94.11;101007.81;6093009;19;20011;-76
2023/06/19 03:11:04;;;;;;;39.20;21.00;;;;;;;18.85;94.05;101020.19;6091754;19;20010;-74
2023/06/19 03:13:08;;;;;;;40.97;20.70;;;;;;;18.88;94.32;101019.13;6090868;19;20003;-74
2023/06/19 03:15:14;;;;;;;44.10;21.67;;;;;;;18.89;93.86;101027.94;6091439;19;20007;-75
2023/06/19 03:17:19;;;;;;;48.35;23.15;;;;;;;18.80;93.80;101027.66;6084728;19;20336;-74
2023/06/19 03:19:25;;;;;;;45.90;22.30;;;;;;;18.84;94.38;101029.13;6094276;19;20064;-75
2023/06/19 03:21:32;;;;;;;48.70;23.17;;;;;;;18.84;94.30;101036.25;6090183;19;20049;-75
2023/06/19 03:23:37;;;;;;;52.78;25.00;;;;;;;18.81;93.09;101034.66;6095031;19;20010;-74
2023/06/19 03:25:42;;;;;;;53.28;25.20;;;;;;;18.77;93.48;101041.19;6092952;19;20010;-75
2023/06/19 03:27:47;;;;;;;52.30;24.15;;;;;;;18.73;93.18;101037.00;6091342;19;20011;-75
2023/06/19 03:29:56;;;;;;;48.13;23.33;;;;;;;18.74;92.37;101049.34;6093709;19;20014;-74
2023/06/19 03:32:03;;;;;;;37.92;18.23;;;;;;;18.68;92.21;101047.13;6089508;19;20017;-74
2023/06/19 03:34:08;;;;;;;36.03;17.80;;;;;;;18.61;92.26;101049.34;6092341;19;20019;-75
2023/06/19 03:36:13;;;;;;;34.47;16.88;;;;;;;18.63;92.21;101043.94;6092818;19;20701;-73
2023/06/19 03:38:21;;;;;;;32.88;15.80;;;;;;;18.67;91.91;101042.78;6092066;19;20477;-75
2023/06/19 03:40:26;;;;;;;30.63;15.52;;;;;;;18.64;91.43;101053.63;6090751;19;20006;-74
2023/06/19 03:42:34;;;;;;;32.22;15.50;;;;;;;18.57;91.02;101061.19;6088327;19;20439;-74
2023/06/19 03:44:40;;;;;;;30.48;14.63;;;;;;;18.57;91.05;101063.03;6090511;19;20006;-75
2023/06/19 03:46:46;;;;;;;30.27;15.27;;;;;;;18.57;91.05;101065.69;6091555;19;20676;-72
2023/06/19 03:48:51;;;;;;;27.80;14.38;;;;;;;18.54;91.54;101071.22;6087839;19;20011;-74
2023/06/19 03:50:56;;;;;;;27.52;14.20;;;;;;;18.54;91.57;101068.56;6092854;19;20006;-70
2023/06/19 03:53:01;;;;;;;23.35;11.20;;;;;;;18.53;91.06;101078.34;6089974;19;20094;-70
2023/06/19 03:55:09;;;;;;;21.70;10.60;;;;;;;18.56;90.27;101080.81;6091311;19;21486;-70
2023/06/19 03:57:14;;;;;;;21.17;10.98;;;;;;;18.55;90.89;101084.41;6091280;19;20006;-68
2023/06/19 03:59:20;;;;;;;19.40;9.48;;;;;;;18.54;89.50;101085.38;6087355;19;20406;-74
2023/06/19 04:01:26;;;;;;;18.02;7.78;;;;;;;18.48;89.12;101100.91;6087508;19;20103;-74
2023/06/19 04:03:31;;;;;;;16.67;7.75;;;;;;;18.41;88.85;101100.50;6091561;19;20341;-76
2023/06/19 04:05:36;;;;;;;19.95;8.82;;;;;;;18.33;88.40;101098.38;6091463;19;20412;-75
2023/06/19 04:07:41;;;;;;;16.05;7.22;;;;;;;18.33;88.73;101105.50;6090626;19;20018;-75
2023/06/19 04:09:46;;;;;;;16.75;8.30;;;;;;;18.31;89.09;101099.41;6092380;19;20014;-75
2023/06/19 04:11:54;;;;;;;20.02;9.68;;;;;;;18.24;89.21;101112.28;6092434;19;20046;-73
2023/06/19 04:13:59;;;;;;;18.38;8.57;;;;;;;18.24;89.16;101119.41;6090525;19;20074;-75
2023/06/19 04:16:04;;;;;;;17.42;8.27;;;;;;;18.17;89.35;101124.31;6090634;19;20482;-74
2023/06/19 04:18:09;;;;;;;21.77;9.98;;;;;;;18.17;89.55;101121.66;6091098;19;20427;-76
2023/06/19 04:20:14;;;;;;;18.88;8.77;;;;;;;18.18;89.32;101124.19;6093033;19;20006;-74
2023/06/19 04:22:20;;;;;;;20.92;10.38;;;;;;;18.14;89.08;101130.69;6090624;19;20520;-76
2023/06/19 04:24:26;;;;;;;18.23;9.52;;;;;;;18.21;89.21;101133.78;6093007;19;20090;-76
2023/06/19 04:26:31;;;;;;;19.23;9.90;;;;;;;18.18;89.18;101132.19;6097959;19;20013;-76
2023/06/19 04:28:39;;;;;;;24.45;11.40;;;;;;;18.22;89.26;101143.47;6094947;19;20007;-69
2023/06/19 04:30:44;;;;;;;23.63;13.05;;;;;;;18.23;89.24;101146.97;6092797;19;19998;-68
2023/06/19 04:32:49;;;;;;;22.85;12.50;;;;;;;18.23;89.62;101150.50;6093918;19;20296;-68
2023/06/19 04:34:55;;;;;;;25.98;12.52;;;;;;;18.18;89.28;101152.59;6098680;19;20520;-71
2023/06/19 04:37:01;;;;;;;27.60;14.70;;;;;;;18.14;89.72;101156.41;6093418;19;20022;-68
2023/06/19 04:39:06;;;;;;;24.83;11.82;;;;;;;18.18;89.48;101155.28;6097093;19;20034;-68
2023/06/19 04:41:11;;;;;;;28.73;14.73;;;;;;;18.13;89.45;101154.72;6095950;19;20471;-71
2023/06/19 04:43:16;;;;;;;32.10;13.27;;;;;;;18.16;89.12;101152.69;6089786;19;20010;-70
2023/06/19 04:45:24;;;;;;;22.05;12.88;;;;;;;18.13;88.47;101154.72;6092631;19;20017;-69
2023/06/19 04:47:29;;;;;;;28.55;13.57;;;;;;;18.12;88.73;101171.66;6095973;19;20174;-68
2023/06/19 04:49:51;;;;;;;27.58;13.48;;;;;;;18.20;88.88;101171.97;6096489;19;20082;-68
2023/06/19 04:51:58;;;;;;;28.10;14.85;;;;;;;18.13;88.45;101173.34;6094300;19;20074;-70
2023/06/19 04:54:03;;;;;;;25.42;11.85;;;;;;;18.12;88.23;101169.00;6092971;19;20371;-68
2023/06/19 04:56:08;;;;;;;27.25;15.40;;;;;;;18.11;88.32;101172.59;6092866;19;20006;-68
2023/06/19 04:58:13;;;;;;;26.00;13.30;;;;;;;18.09;88.42;101171.81;6095507;19;20468;-69
2023/06/19 05:00:26;;;;;;;28.15;13.43;;;;;;;18.11;88.06;101184.06;6095383;19;20465;-69
2023/06/19 05:02:31;;;;;;;27.48;13.32;;;;;;;18.18;87.65;101179.22;6094225;19;20672;-70
2023/06/19 05:04:37;;;;;;;27.90;14.18;;;;;;;18.14;87.90;101189.22;6093336;19;20003;-69
2023/06/19 05:06:42;;;;;;;29.05;14.18;;;;;;;18.19;87.25;101180.91;6093393;19;20065;-69
2023/06/19 05:08:47;;;;;;;29.75;14.77;;;;;;;18.15;87.77;101190.91;6092163;19;20007;-69
2023/06/19 05:10:54;;;;;;;28.15;13.85;;;;;;;18.20;88.05;101193.25;6091882;19;20522;-70
2023/06/19 05:13:00;;;;;;;32.63;15.25;;;;;;;18.22;87.58;101194.03;6092527;19;20050;-70
2023/06/19 05:15:06;;;;;;;33.10;16.88;;;;;;;18.17;87.68;101196.97;6093174;19;20042;-75
2023/06/19 05:17:14;;;;;;;35.60;19.30;;;;;;;18.18;87.23;101197.81;6089910;19;20006;-76
2023/06/19 05:19:22;;;;;;;35.10;18.95;;;;;;;18.20;87.39;101204.75;6088465;19;20927;-75
2023/06/19 05:21:27;;;;;;;33.80;17.23;;;;;;;18.24;87.40;101205.38;6092928;19;20002;-75
2023/06/19 05:23:33;;;;;;;36.33;18.70;;;;;;;18.21;87.77;101208.25;6092753;19;20011;-75
2023/06/19 05:25:38;;;;;;;35.58;17.08;;;;;;;18.21;86.33;101213.56;6090041;19;20013;-75
2023/06/19 05:27:43;;;;;;;35.47;18.67;;;;;;;18.07;86.63;101218.97;6090436;19;20007;-77
2023/06/19 05:29:48;;;;;;;35.38;17.38;;;;;;;18.03;86.02;101230.75;6090971;19;20039;-76
2023/06/19 05:31:53;;;;;;;36.08;18.48;;;;;;;17.93;86.75;101226.06;6097585;19;20066;-76
2023/06/19 05:34:01;;;;;;;36.78;18.50;;;;;;;17.83;86.62;101232.91;6097081;19;20070;-75
2023/06/19 05:36:07;;;;;;;35.40;17.20;;;;;;;17.92;86.74;101232.31;6092812;19;20082;-76
2023/06/19 05:38:12;;;;;;;34.38;17.27;;;;;;;17.92;86.40;101232.31;6093662;19;20023;-76
2023/06/19 05:40:17;;;;;;;36.80;18.83;;;;;;;17.82;86.46;101236.50;6095033;19;20019;-76
2023/06/19 05:42:25;;;;;;;40.33;17.73;;;;;;;17.89;86.41;101232.50;6094153;19;19999;-75
2023/06/19 05:44:30;;;;;;;34.58;17.45;;;;;;;17.86;85.62;101243.34;6094868;19;20015;-75
2023/06/19 05:46:36;;;;;;;34.15;16.75;;;;;;;17.89;84.73;101248.47;6091217;19;20014;-76
2023/06/19 05:48:41;;;;;;;35.88;17.70;;;;;;;17.85;84.35;101252.28;6094112;19;20007;-76
2023/06/19 05:50:48;;;;;;;34.33;17.13;;;;;;;17.86;84.79;101248.66;6094431;19;20007;-76
2023/06/19 05:52:53;;;;;;;38.33;16.58;;;;;;;17.74;85.01;101254.72;6089871;19;20006;-76
2023/06/19 05:55:00;;;;;;;32.63;16.25;;;;;;;17.89;84.70;101253.78;6094409;19;20063;-75
2023/06/19 05:57:05;;;;;;;35.78;17.65;;;;;;;17.81;83.69;101256.06;6096316;19;20075;-74
2023/06/19 05:59:10;;;;;;;35.30;17.35;;;;;;;17.63;83.69;101259.88;6095279;19;20085;-75
2023/06/19 06:01:17;;;;;;;31.77;16.38;;;;;;;17.71;83.75;101261.09;6092168;19;20479;-75
2023/06/19 06:03:23;;;;;;;32.28;17.45;;;;;;;17.71;83.74;101262.91;6088626;19;20040;-76
2023/06/19 06:05:28;;;;;;;30.52;16.42;;;;;;;17.76;83.43;101263.47;6094125;19;20577;-75
2023/06/19 06:07:36;;;;;;;30.23;15.57;;;;;;;17.74;83.52;101266.19;6095645;19;20343;-76
2023/06/19 06:09:48;;;;;;;31.88;15.68;;;;;;;17.90;83.33;101273.22;6091370;19;20052;-76
2023/06/19 06:11:53;;;;;;;32.05;16.65;;;;;;;17.89;83.62;101280.38;6095568;19;20428;-73
2023/06/19 06:13:59;;;;;;;35.38;16.50;;;;;;;17.85;83.33;101281.53;6093336;19;20003;-75
2023/06/19 06:16:04;;;;;;;32.20;15.07;;;;;;;17.91;82.83;101281.13;6093198;19;20023;-76
2023/06/19 06:18:09;;;;;;;36.60;17.02;;;;;;;17.88;83.00;101291.13;6086612;19;20007;-75
2023/06/19 06:20:14;;;;;;;29.25;14.98;;;;;;;17.86;82.47;101299.19;6090834;19;20006;-74
2023/06/19 06:22:20;;;;;;;33.80;14.93;;;;;;;17.84;82.33;101292.25;6091978;19;20020;-74
2023/06/19 06:24:31;;;;;;;33.15;17.38;;;;;;;17.89;82.09;101292.81;6093918;19;20010;-76
2023/06/19 06:26:38;;;;;;;33.78;14.93;;;;;;;17.86;82.10;101301.00;6088994;19;20031;-74
2023/06/19 06:28:43;;;;;;;30.35;15.18;;;;;;;17.98;81.50;101287.78;6090059;19;20013;-75
2023/06/19 06:30:48;;;;;;;31.83;14.80;;;;;;;18.04;80.86;101302.47;6088574;19;20034;-75
2023/06/19 06:32:53;;;;;;;28.45;15.10;;;;;;;18.01;81.19;101307.09;6090954;19;20065;-76
2023/06/19 06:34:59;;;;;;;25.75;13.73;;;;;;;18.17;80.90;101305.19;6089467;19;20483;-75
2023/06/19 06:37:04;;;;;;;32.67;15.30;;;;;;;18.31;80.17;101299.81;6102219;19;20464;-74
2023/06/19 06:39:10;;;;;;;28.35;15.57;;;;;;;18.50;80.01;101312.75;6102172;19;19998;-74
2023/06/19 06:41:18;;;;;;;29.88;14.90;;;;;;;18.37;80.13;101317.16;6095427;19;20010;-75
2023/06/19 06:43:26;;;;;;;28.98;14.32;;;;;;;18.43;79.95;101316.75;6098624;19;20598;-74
2023/06/19 06:45:33;;;;;;;25.42;14.07;;;;;;;18.38;79.88;101318.91;6101023;19;20018;-75
2023/06/19 06:47:39;;;;;;;31.75;15.25;;;;;;;18.48;79.53;101332.44;6096840;19;20031;-74
2023/06/19 06:49:47;;;;;;;30.88;14.90;;;;;;;18.31;78.69;101328.22;6096758;19;20010;-76
2023/06/19 06:51:52;;;;;;;27.90;13.73;;;;;;;18.27;79.29;101337.34;6093589;19;20450;-75
2023/06/19 06:54:02;;;;;;;30.58;14.07;;;;;;;18.48;79.00;101325.28;6093062;19;20333;-74
2023/06/19 06:56:07;;;;;;;30.45;17.30;;;;;;;18.52;78.95;101334.81;6095198;19;20023;-74
2023/06/19 06:58:17;;;;;;;29.67;15.43;;;;;;;18.52;78.29;101336.63;6093150;19;20086;-75
2023/06/19 07:00:24;;;;;;;35.30;15.32;;;;;;;18.70;78.28;101346.03;6090723;19;20290;-74
2023/06/19 07:02:30;;;;;;;33.00;14.32;;;;;;;18.74;78.13;101347.53;6086476;19;20023;-74
2023/06/19 07:04:35;;;;;;;29.95;15.00;;;;;;;18.68;77.81;101350.59;6092993;19;20027;-73
2023/06/19 07:06:40;;;;;;;32.55;16.08;;;;;;;18.73;78.19;101350.31;6094480;19;20007;-74
2023/06/19 07:08:47;;;;;;;29.55;14.13;;;;;;;18.82;77.76;101353.22;6094036;19;20019;-74
2023/06/19 07:10:55;;;;;;;29.60;15.35;;;;;;;18.88;77.68;101365.28;6093740;19;20039;-74
2023/06/19 07:13:02;;;;;;;27.90;14.23;;;;;;;18.82;77.30;101363.03;6095637;19;20038;-73
2023/06/19 07:15:10;;;;;;;30.08;14.60;;;;;;;18.97;77.09;101358.50;6096307;19;20030;-72
2023/06/19 07:17:18;;;;;;;30.05;14.55;;;;;;;19.39;75.79;101357.34;6090461;19;20078;-69
2023/06/19 07:19:24;;;;;;;31.92;14.80;;;;;;;19.81;74.42;101360.66;6093942;19;20337;-74
2023/06/19 07:21:32;;;;;;;28.65;13.65;;;;;;;20.08;73.32;101352.50;6088840;19;20538;-73
2023/06/19 07:23:37;;;;;;;29.83;14.80;;;;;;;20.08;73.17;101370.31;6090007;19;20540;-74
2023/06/19 07:25:42;;;;;;;30.00;14.70;;;;;;;20.56;71.50;101357.91;6091613;19;20074;-78
2023/06/19 07:27:47;;;;;;;31.48;15.07;;;;;;;20.16;72.35;101357.28;6095888;19;20496;-74
2023/06/19 07:29:55;;;;;;;30.95;14.68;;;;;;;20.14;72.90;101356.53;6095695;19;20460;-73
2023/06/19 07:32:06;;;;;;;26.05;13.38;;;;;;;20.00;71.99;101360.19;6094402;19;20733;-74
2023/06/19 07:34:11;;;;;;;24.92;13.57;;;;;;;20.45;71.24;101360.47;6093388;19;20025;-75
2023/06/19 07:36:16;;;;;;;28.27;14.27;;;;;;;20.51;71.26;101365.38;6093772;19;20014;-75
2023/06/19 07:38:21;;;;;;;24.73;13.10;;;;;;;20.45;70.54;101367.63;6098877;19;20003;-75
2023/06/19 07:40:26;;;;;;;28.23;13.23;;;;;;;20.65;70.33;101366.19;6095153;19;20486;-75
2023/06/19 07:42:32;;;;;;;28.05;13.43;;;;;;;20.42;70.02;101368.72;6092666;19;20609;-74
2023/06/19 07:44:37;;;;;;;27.35;13.68;;;;;;;20.66;70.19;101363.41;6096712;19;20031;-76
2023/06/19 07:46:43;;;;;;;26.48;14.60;;;;;;;20.48;70.07;101362.06;6093041;19;20035;-73
2023/06/19 07:48:50;;;;;;;29.77;14.00;;;;;;;20.49;70.07;101367.31;6094525;19;20039;-74
2023/06/19 07:50:56;;;;;;;28.73;13.80;;;;;;;20.61;70.15;101369.06;6097161;19;20122;-75
2023/06/19 07:53:03;;;;;;;24.27;12.43;;;;;;;20.74;69.34;101378.84;6092924;19;20011;-74
2023/06/19 07:55:08;;;;;;;24.85;14.23;;;;;;;20.85;68.96;101376.22;6093028;19;20014;-75
2023/06/19 07:57:13;;;;;;;25.85;12.85;;;;;;;20.68;69.81;101373.97;6091912;19;20017;-75
2023/06/19 07:59:19;;;;;;;24.67;12.48;;;;;;;20.81;70.24;101375.59;6093044;19;20036;-74
2023/06/19 08:01:25;;;;;;;30.10;14.40;;;;;;;20.43;69.81;101378.41;6101055;19;20007;-75
2023/06/19 08:03:30;;;;;;;23.88;12.52;;;;;;;20.29;70.60;101381.25;6100650;19;20613;-74
2023/06/19 08:05:38;;;;;;;26.25;13.02;;;;;;;20.34;70.75;101379.94;6101014;19;20054;-75
2023/06/19 08:07:43;;;;;;;22.75;11.52;;;;;;;20.57;69.52;101385.47;6100045;19;20467;-74
2023/06/19 08:09:48;;;;;;;21.05;12.10;;;;;;;20.49;69.78;101380.66;6099533;19;20034;-74
2023/06/19 08:12:11;;;;;;;21.35;11.10;;;;;;;20.44;70.08;101380.13;6101198;19;20444;-73
2023/06/19 08:14:16;;;;;;;25.90;12.13;;;;;;;20.51;69.51;101389.41;6103175;19;20035;-74
2023/06/19 08:16:21;;;;;;;24.02;12.27;;;;;;;20.52;69.39;101392.94;6100220;19;20010;-75
2023/06/19 08:18:26;;;;;;;20.98;10.70;;;;;;;20.34;69.45;101392.44;6101702;19;20358;-73
2023/06/19 08:20:32;;;;;;;20.92;10.38;;;;;;;20.35;69.64;101397.69;6105034;19;20003;-68
2023/06/19 08:22:40;;;;;;;21.98;10.70;;;;;;;20.27;68.68;101409.88;6103750;19;20006;-68
2023/06/19 08:24:45;;;;;;;20.90;10.57;;;;;;;20.26;68.90;101414.34;6105002;19;20015;-69
2023/06/19 08:26:51;;;;;;;25.50;11.43;;;;;;;20.22;69.23;101420.00;6103588;19;20010;-69
2023/06/19 08:28:56;;;;;;;21.20;11.38;;;;;;;20.31;69.44;101422.03;6102663;19;20002;-69
2023/06/19 08:31:04;;;;;;;20.48;11.18;;;;;;;20.58;69.19;101420.03;6104825;19;20950;-69
2023/06/19 08:33:10;;;;;;;21.77;10.68;;;;;;;20.83;68.36;101421.75;6103349;19;20017;-68
2023/06/19 08:35:15;;;;;;;25.08;11.55;;;;;;;20.77;68.59;101427.56;6103289;19;20073;-69
2023/06/19 08:37:20;;;;;;;21.05;11.40;;;;;;;20.87;68.37;101427.72;6099246;19;20006;-69
2023/06/19 08:39:28;;;;;;;24.98;13.00;;;;;;;20.65;69.03;101428.47;6104435;19;20312;-69
2023/06/19 08:41:34;;;;;;;20.08;10.80;;;;;;;20.60;68.99;101434.13;6102946;19;20006;-70
2023/06/19 08:43:41;;;;;;;25.90;11.25;;;;;;;20.88;68.91;101429.44;6105075;19;20393;-69
2023/06/19 08:45:54;;;;;;;26.25;12.38;;;;;;;20.78;68.02;101434.59;6103303;19;20443;-70
2023/06/19 08:48:03;;;;;;;25.58;12.65;;;;;;;21.24;66.80;101432.97;6105319;19;20015;-70
2023/06/19 08:50:09;;;;;;;23.77;10.45;;;;;;;22.14;65.02;101425.06;6101502;19;19999;-70
2023/06/19 08:52:14;;;;;;;24.73;11.50;;;;;;;22.44;63.27;101416.44;6099509;19;20002;-71
2023/06/19 08:54:20;;;;;;;25.85;11.45;;;;;;;23.36;61.34;101414.13;6097985;19;20014;-68
2023/06/19 08:56:28;;;;;;;22.27;11.45;;;;;;;24.16;58.50;101409.03;6099576;19;20077;-68
2023/06/19 08:58:35;;;;;;;23.23;13.40;;;;;;;24.15;58.05;101410.03;6101089;19;20002;-71
2023/06/19 09:00:40;;;;;;;22.65;13.23;;;;;;;23.82;57.94;101423.59;6096803;19;19999;-68
2023/06/19 09:02:48;;;;;;;25.65;13.38;;;;;;;23.59;59.40;101430.94;6096379;19;20035;-70
2023/06/19 09:05:17;;;;;;;24.00;11.50;;;;;;;22.84;60.38;101431.06;6099058;19;20040;-69
2023/06/19 09:07:23;;;;;;;19.38;10.57;;;;;;;23.01;59.36;101422.47;6097531;19;20471;-69
2023/06/19 09:09:29;;;;;;;19.85;10.18;;;;;;;23.11;59.61;101425.25;6099385;19;20411;-68
2023/06/19 09:11:43;;;;;;;19.92;10.57;;;;;;;22.82;59.53;101441.03;6098592;19;20010;-68
2023/06/19 09:13:59;;;;;;;22.92;11.50;;;;;;;22.42;60.87;101434.44;6102391;19;20010;-70
2023/06/19 09:16:06;;;;;;;21.15;11.77;;;;;;;22.12;61.77;101451.13;6096836;19;20114;-68
2023/06/19 09:18:14;;;;;;;20.20;11.27;;;;;;;22.39;61.41;101440.06;6099203;19;20002;-70
2023/06/19 09:20:29;;;;;;;21.20;11.15;;;;;;;22.10;62.94;101450.41;6099278;19;20070;-69
2023/06/19 09:22:34;;;;;;;20.85;10.40;;;;;;;21.94;62.49;101457.94;6094688;19;20079;-69
2023/06/19 09:24:41;;;;;;;21.45;10.60;;;;;;;22.17;61.91;101456.09;6093273;19;20422;-69
2023/06/19 09:26:49;;;;;;;22.33;10.38;;;;;;;22.15;61.83;101464.28;6099233;19;20007;-70
2023/06/19 09:28:54;;;;;;;18.38;10.30;;;;;;;21.98;61.80;101464.75;6099724;19;20022;-69
2023/06/19 09:31:02;;;;;;;22.33;10.75;;;;;;;21.81;63.23;101469.59;6100274;19;20347;-69
2023/06/19 09:33:09;;;;;;;31.20;12.52;;;;;;;22.04;62.40;101469.63;6101986;19;20040;-68
2023/06/19 09:35:15;;;;;;;20.58;11.45;;;;;;;21.94;62.50;101460.63;6102900;19;20527;-70
2023/06/19 09:37:26;;;;;;;21.48;11.27;;;;;;;21.83;62.82;101462.31;6094042;19;20007;-68